Aviation Digital Data Service (ADDS)

Output produced by TAFs form (0154 UTC 22 June 2018)
found at http://www.aviationweather.gov/adds/tafs/
 
METAR text: RJTO 220100Z 33003KT 280V060 9999 FEW015 SCT025 BKN/// 24/20 Q1008
Conditions at: RJTO (OSHIMA AIRPORT , JP) observed 0100 UTC 22 June 2018
Temperature: 24.0°C (75°F)
Dewpoint: 20.0°C (68°F) [RH = 78%]
Pressure (altimeter): 29.76 inches Hg (1008.0 mb)
Winds: from the NNW (330 degrees) at 3 MPH (3 knots; 1.6 m/s)
Visibility: 6 or more miles (10+ km)
Ceiling: at least 12,000 feet AGL
Clouds: few clouds at 1500 feet AGL
scattered clouds at 2500 feet AGL
Weather: no significant weather observed at this time